createdAt,value
2023-09-19T00:00:32.850Z,854.16
2023-09-19T00:01:32.929Z,854.15
2023-09-19T00:02:32.958Z,854.16
2023-09-19T00:03:32.912Z,854.21
2023-09-19T00:04:32.813Z,854.16
2023-09-19T00:05:32.791Z,854.14
2023-09-19T00:06:32.781Z,854.18
2023-09-19T00:07:32.766Z,854.18
2023-09-19T00:08:32.756Z,854.16
2023-09-19T00:09:32.762Z,854.13
2023-09-19T00:10:32.829Z,854.17
2023-09-19T00:11:32.729Z,854.16
2023-09-19T00:12:32.724Z,854.13
2023-09-19T00:13:32.711Z,854.19
2023-09-19T00:14:32.695Z,854.15
2023-09-19T00:15:32.678Z,854.20
2023-09-19T00:16:32.748Z,854.16
2023-09-19T00:17:32.762Z,854.22
2023-09-19T00:18:32.649Z,854.16
2023-09-19T00:19:32.724Z,854.13
2023-09-19T00:20:32.626Z,854.10
2023-09-19T00:21:32.626Z,854.09
2023-09-19T00:22:32.638Z,854.10
2023-09-19T00:23:32.637Z,854.14
2023-09-19T00:24:32.584Z,854.13
2023-09-19T00:25:32.599Z,854.15
2023-09-19T00:26:32.604Z,854.17
2023-09-19T00:27:32.551Z,854.21
2023-09-19T00:28:32.554Z,854.21
2023-09-19T00:29:32.541Z,854.21
2023-09-19T00:30:32.589Z,854.20
2023-09-19T00:31:32.564Z,854.15
2023-09-19T00:32:32.585Z,854.14
2023-09-19T00:33:32.487Z,854.14
2023-09-19T00:34:32.530Z,854.11
2023-09-19T00:35:32.526Z,854.05
2023-09-19T00:36:32.455Z,854.03
2023-09-19T00:37:32.492Z,853.99
2023-09-19T00:38:32.425Z,853.99
2023-09-19T00:39:32.422Z,854.03
2023-09-19T00:40:32.508Z,854.06
2023-09-19T00:41:32.409Z,854.07
2023-09-19T00:42:32.382Z,854.07
2023-09-19T00:43:32.410Z,854.08
2023-09-19T00:44:32.361Z,854.17
2023-09-19T00:45:32.358Z,854.09
2023-09-19T00:46:32.450Z,854.12
2023-09-19T00:47:32.492Z,854.16
2023-09-19T00:48:32.369Z,854.20
2023-09-19T00:49:32.322Z,854.21
2023-09-19T00:50:32.294Z,854.24
2023-09-19T00:51:32.324Z,854.27
2023-09-19T00:52:32.315Z,854.26
2023-09-19T00:53:32.258Z,854.22
2023-09-19T00:54:32.253Z,854.18
2023-09-19T00:55:32.299Z,854.14
2023-09-19T00:56:32.229Z,854.16
2023-09-19T00:57:32.219Z,854.10
2023-09-19T00:58:32.229Z,854.05
2023-09-19T00:59:32.195Z,854.07
2023-09-19T01:00:32.191Z,854.08
2023-09-19T01:01:32.270Z,854.06
2023-09-19T01:02:32.259Z,854.05
2023-09-19T01:03:32.277Z,854.05
2023-09-19T01:04:32.164Z,854.08
2023-09-19T01:05:32.124Z,854.07
2023-09-19T01:06:32.119Z,854.07
2023-09-19T01:07:32.272Z,854.06
2023-09-19T01:08:32.095Z,854.03
2023-09-19T01:09:32.089Z,854.03
2023-09-19T01:10:32.105Z,854.04
2023-09-19T01:11:32.075Z,854.02
2023-09-19T01:12:32.069Z,854.03
2023-09-19T01:13:32.382Z,853.99
2023-09-19T01:14:32.037Z,853.97
2023-09-19T01:15:32.026Z,853.96
2023-09-19T01:16:32.149Z,853.95
2023-09-19T01:17:32.025Z,853.94
2023-09-19T01:18:32.097Z,853.97
2023-09-19T01:19:31.998Z,853.98
2023-09-19T01:20:31.967Z,854.01
2023-09-19T01:21:31.964Z,854.03
2023-09-19T01:22:31.985Z,854.07
2023-09-19T01:23:31.963Z,854.09
2023-09-19T01:24:31.931Z,854.15
2023-09-19T01:25:31.975Z,854.13
2023-09-19T01:26:31.937Z,854.14
2023-09-19T01:27:31.900Z,854.18
2023-09-19T01:28:32.007Z,854.16
2023-09-19T01:29:31.889Z,854.22
2023-09-19T01:30:31.869Z,854.18
2023-09-19T01:31:31.888Z,854.17
2023-09-19T01:32:31.983Z,854.18
2023-09-19T01:33:31.899Z,854.12
2023-09-19T01:34:31.861Z,854.09
2023-09-19T01:35:31.827Z,854.15
2023-09-19T01:36:31.787Z,854.14
2023-09-19T01:37:31.817Z,854.15
2023-09-19T01:38:31.767Z,854.10
2023-09-19T01:39:31.781Z,854.09
2023-09-19T01:40:31.791Z,854.07
2023-09-19T01:41:31.732Z,854.04
2023-09-19T01:42:31.726Z,854.07
2023-09-19T01:43:31.754Z,854.09
2023-09-19T01:44:31.698Z,854.12
2023-09-19T01:45:31.706Z,854.10
2023-09-19T01:46:31.851Z,854.14
2023-09-19T01:47:31.709Z,854.17
2023-09-19T01:48:31.655Z,854.19
2023-09-19T01:49:31.731Z,854.18
2023-09-19T01:50:31.632Z,854.16
2023-09-19T01:51:31.638Z,854.19
2023-09-19T01:52:31.635Z,854.18
2023-09-19T01:53:31.639Z,854.20
2023-09-19T01:54:31.593Z,854.22
2023-09-19T01:55:31.622Z,854.28
2023-09-19T01:56:31.566Z,854.34
2023-09-19T01:57:31.562Z,854.35
2023-09-19T01:58:31.618Z,854.33
2023-09-19T01:59:31.545Z,854.38
2023-09-19T02:00:31.516Z,854.37
2023-09-19T02:01:31.564Z,854.36
2023-09-19T02:02:31.584Z,854.33
2023-09-19T02:03:31.591Z,854.37
2023-09-19T02:04:31.523Z,854.36
2023-09-19T02:05:31.460Z,854.48
2023-09-19T02:06:31.459Z,854.35
2023-09-19T02:07:31.446Z,854.34
2023-09-19T02:08:31.441Z,854.33
2023-09-19T02:09:31.425Z,854.29
2023-09-19T02:10:31.428Z,854.34
2023-09-19T02:11:31.421Z,854.35
2023-09-19T02:12:31.387Z,854.34
2023-09-19T02:13:31.450Z,854.38
2023-09-19T02:14:31.377Z,854.35
2023-09-19T02:15:31.361Z,854.33
2023-09-19T02:16:31.385Z,854.29
2023-09-19T02:17:31.341Z,854.34
2023-09-19T02:18:31.334Z,854.28
2023-09-19T02:19:31.326Z,854.34
2023-09-19T02:20:31.316Z,854.32
2023-09-19T02:21:31.290Z,854.26
2023-09-19T02:22:31.316Z,854.28
2023-09-19T02:23:31.273Z,854.29
2023-09-19T02:24:31.272Z,854.26
2023-09-19T02:25:31.260Z,854.24
2023-09-19T02:26:31.230Z,854.26
2023-09-19T02:27:31.246Z,854.30
2023-09-19T02:28:31.304Z,854.30
2023-09-19T02:29:31.194Z,854.30
2023-09-19T02:30:31.210Z,854.35
2023-09-19T02:31:31.235Z,854.35
2023-09-19T02:32:31.326Z,854.39
2023-09-19T02:33:31.155Z,854.40
2023-09-19T02:34:31.162Z,854.41
2023-09-19T02:35:31.149Z,854.41
2023-09-19T02:36:31.129Z,854.37
2023-09-19T02:37:31.151Z,854.39
2023-09-19T02:38:31.098Z,854.36
2023-09-19T02:39:31.099Z,854.37
2023-09-19T02:40:31.096Z,854.35
2023-09-19T02:41:31.077Z,854.35
2023-09-19T02:42:31.052Z,854.37
2023-09-19T02:43:31.100Z,854.42
2023-09-19T02:44:31.037Z,854.39
2023-09-19T02:45:31.037Z,854.42
2023-09-19T02:46:31.164Z,854.44
2023-09-19T02:47:31.092Z,854.45
2023-09-19T02:48:30.988Z,854.50
2023-09-19T02:49:31.106Z,854.43
2023-09-19T02:50:30.986Z,854.44
2023-09-19T02:51:30.970Z,854.45
2023-09-19T02:52:30.977Z,854.50
2023-09-19T02:53:30.933Z,854.47
2023-09-19T02:54:30.924Z,854.46
2023-09-19T02:55:30.977Z,854.46
2023-09-19T02:56:30.908Z,854.50
2023-09-19T02:57:30.884Z,854.45
2023-09-19T02:58:30.899Z,854.44
2023-09-19T02:59:30.895Z,854.45
2023-09-19T03:00:30.878Z,854.46
2023-09-19T03:01:30.897Z,854.48
2023-09-19T03:02:30.907Z,854.47
2023-09-19T03:03:30.832Z,854.52
2023-09-19T03:04:30.863Z,854.49
2023-09-19T03:05:30.814Z,854.46
2023-09-19T03:06:30.795Z,854.50
2023-09-19T03:07:30.829Z,854.53
2023-09-19T03:08:30.772Z,854.53
2023-09-19T03:09:30.756Z,854.50
2023-09-19T03:10:30.775Z,854.51
2023-09-19T03:11:32.046Z,854.53
2023-09-19T03:12:30.721Z,854.61
2023-09-19T03:13:30.746Z,854.57
2023-09-19T03:14:30.695Z,854.62
2023-09-19T03:15:30.740Z,854.62
2023-09-19T03:16:30.730Z,854.65
2023-09-19T03:17:30.763Z,854.65
2023-09-19T03:18:30.710Z,854.60
2023-09-19T03:19:30.688Z,854.63
2023-09-19T03:20:30.649Z,854.61
2023-09-19T03:21:30.649Z,854.58
2023-09-19T03:22:30.676Z,854.56
2023-09-19T03:23:30.594Z,854.54
2023-09-19T03:24:30.593Z,854.54
2023-09-19T03:25:30.618Z,854.56
2023-09-19T03:26:30.566Z,854.53
2023-09-19T03:27:30.552Z,854.58
2023-09-19T03:28:30.612Z,854.57
2023-09-19T03:29:30.540Z,854.60
2023-09-19T03:30:30.522Z,854.55
2023-09-19T03:31:30.678Z,854.59
2023-09-19T03:32:30.518Z,854.56
2023-09-19T03:33:30.484Z,854.56
2023-09-19T03:34:30.549Z,854.56
2023-09-19T03:35:30.491Z,854.62
2023-09-19T03:36:30.464Z,854.58
2023-09-19T03:37:30.461Z,854.56
2023-09-19T03:38:30.434Z,854.57
2023-09-19T03:39:30.456Z,854.56
2023-09-19T03:40:30.438Z,854.53
2023-09-19T03:41:30.399Z,854.52
2023-09-19T03:42:30.386Z,854.53
2023-09-19T03:43:30.420Z,854.48
2023-09-19T03:44:30.367Z,854.49
2023-09-19T03:45:30.389Z,854.48
2023-09-19T03:46:30.428Z,854.54
2023-09-19T03:47:30.423Z,854.51
2023-09-19T03:48:30.355Z,854.48
2023-09-19T03:49:30.390Z,854.46
2023-09-19T03:50:30.312Z,854.49
2023-09-19T03:51:30.292Z,854.45
2023-09-19T03:52:30.309Z,854.48
2023-09-19T03:53:30.270Z,854.43
2023-09-19T03:54:30.255Z,854.44
2023-09-19T03:55:30.257Z,854.43
2023-09-19T03:56:30.245Z,854.42
2023-09-19T03:57:30.234Z,854.48
2023-09-19T03:58:30.251Z,854.47
2023-09-19T03:59:30.199Z,854.42
2023-09-19T04:00:30.210Z,854.45
2023-09-19T04:01:30.241Z,854.43
2023-09-19T04:02:30.174Z,854.44
2023-09-19T04:03:30.203Z,854.48
2023-09-19T04:04:30.189Z,854.46
2023-09-19T04:05:30.140Z,854.44
2023-09-19T04:06:30.131Z,854.49
2023-09-19T04:07:30.284Z,854.48
2023-09-19T04:08:30.114Z,854.49
2023-09-19T04:09:30.093Z,854.50
2023-09-19T04:10:30.086Z,854.50
2023-09-19T04:11:30.066Z,854.53
2023-09-19T04:12:30.071Z,854.51
2023-09-19T04:13:30.082Z,854.54
2023-09-19T04:14:30.032Z,854.58
2023-09-19T04:15:30.031Z,854.56
2023-09-19T04:16:30.086Z,854.63
2023-09-19T04:17:30.100Z,854.66
2023-09-19T04:18:30.003Z,854.68
2023-09-19T04:19:30.023Z,854.74
2023-09-19T04:20:29.964Z,854.77
2023-09-19T04:21:29.961Z,854.80
2023-09-19T04:22:29.940Z,854.77
2023-09-19T04:23:29.960Z,854.78
2023-09-19T04:24:29.922Z,854.81
2023-09-19T04:25:29.914Z,854.85
2023-09-19T04:26:29.905Z,854.80
2023-09-19T04:27:29.890Z,854.87
2023-09-19T04:28:29.892Z,854.88
2023-09-19T04:29:29.895Z,854.93
2023-09-19T04:30:29.854Z,854.94
2023-09-19T04:31:29.891Z,854.95
2023-09-19T04:32:29.888Z,854.95
2023-09-19T04:33:29.856Z,854.95
2023-09-19T04:34:29.848Z,854.94
2023-09-19T04:35:29.837Z,854.90
2023-09-19T04:36:36.335Z,854.92
2023-09-19T04:37:30.825Z,854.90
2023-09-19T04:38:29.772Z,854.85
2023-09-19T04:39:29.773Z,854.82
2023-09-19T04:40:29.764Z,854.86
2023-09-19T04:41:29.736Z,854.84
2023-09-19T04:42:29.721Z,854.87
2023-09-19T04:43:29.763Z,854.87
2023-09-19T04:44:29.725Z,854.91
2023-09-19T04:45:29.697Z,854.87
2023-09-19T04:46:29.795Z,854.90
2023-09-19T04:47:29.739Z,854.90
2023-09-19T04:48:29.664Z,854.95
2023-09-19T04:49:29.653Z,854.92
2023-09-19T04:50:29.651Z,854.97
2023-09-19T04:51:29.670Z,854.98
2023-09-19T04:52:29.646Z,854.99
2023-09-19T04:53:29.604Z,855.03
2023-09-19T04:54:29.593Z,855.04
2023-09-19T04:55:29.639Z,855.02
2023-09-19T04:56:29.658Z,855.06
2023-09-19T04:57:29.568Z,855.06
2023-09-19T04:58:29.570Z,855.11
2023-09-19T04:59:29.537Z,855.07
2023-09-19T05:00:29.524Z,855.11
2023-09-19T05:01:29.532Z,855.11
2023-09-19T05:02:29.583Z,855.11
2023-09-19T05:03:29.563Z,855.13
2023-09-19T05:04:29.529Z,855.08
2023-09-19T05:05:29.491Z,855.14
2023-09-19T05:06:29.456Z,855.12
2023-09-19T05:07:29.509Z,855.11
2023-09-19T05:08:29.474Z,855.10
2023-09-19T05:09:29.430Z,855.16
2023-09-19T05:10:29.481Z,855.15
2023-09-19T05:11:29.413Z,855.17
2023-09-19T05:12:29.388Z,855.16
2023-09-19T05:13:29.409Z,855.19
2023-09-19T05:14:29.371Z,855.24
2023-09-19T05:15:29.367Z,855.26
2023-09-19T05:16:29.464Z,855.24
2023-09-19T05:17:29.387Z,855.24
2023-09-19T05:18:29.322Z,855.22
2023-09-19T05:19:29.321Z,855.19
2023-09-19T05:20:29.303Z,855.23
2023-09-19T05:21:29.301Z,855.19
2023-09-19T05:22:29.317Z,855.20
2023-09-19T05:23:29.283Z,855.14
2023-09-19T05:24:29.303Z,855.15
2023-09-19T05:25:29.255Z,855.17
2023-09-19T05:26:29.255Z,855.10
2023-09-19T05:27:29.228Z,855.15
2023-09-19T05:28:29.240Z,855.18
2023-09-19T05:29:29.231Z,855.15
2023-09-19T05:30:29.201Z,855.18
2023-09-19T05:31:29.295Z,855.17
2023-09-19T05:32:29.216Z,855.18
2023-09-19T05:33:29.156Z,855.17
2023-09-19T05:34:29.182Z,855.14
2023-09-19T05:35:29.137Z,855.15
2023-09-19T05:36:29.126Z,855.14
2023-09-19T05:37:29.161Z,855.16
2023-09-19T05:38:29.258Z,855.15
2023-09-19T05:39:29.094Z,855.12
2023-09-19T05:40:29.159Z,855.13
2023-09-19T05:41:29.069Z,855.11
2023-09-19T05:42:29.053Z,855.13
2023-09-19T05:43:29.083Z,855.12
2023-09-19T05:44:29.032Z,855.16
2023-09-19T05:45:29.031Z,855.17
2023-09-19T05:46:29.174Z,855.18
2023-09-19T05:47:29.052Z,855.14
2023-09-19T05:48:28.995Z,855.16
2023-09-19T05:49:29.014Z,855.13
2023-09-19T05:50:28.968Z,855.16
2023-09-19T05:51:28.956Z,855.15
2023-09-19T05:52:28.963Z,855.22
2023-09-19T05:53:28.956Z,855.17
2023-09-19T05:54:28.929Z,855.21
2023-09-19T05:55:28.917Z,855.21
2023-09-19T05:56:28.954Z,855.19
2023-09-19T05:57:28.891Z,855.19
2023-09-19T05:58:28.903Z,855.22
2023-09-19T05:59:28.873Z,855.23
2023-09-19T06:00:28.889Z,855.23
2023-09-19T06:01:28.975Z,855.22
2023-09-19T06:02:28.995Z,855.27
2023-09-19T06:03:28.868Z,855.24
2023-09-19T06:04:28.864Z,855.29
2023-09-19T06:05:28.839Z,855.29
2023-09-19T06:06:28.799Z,855.33
2023-09-19T06:07:28.821Z,855.34
2023-09-19T06:08:28.791Z,855.37
2023-09-19T06:09:28.762Z,855.38
2023-09-19T06:10:28.771Z,855.33
2023-09-19T06:11:28.795Z,855.39
2023-09-19T06:12:28.769Z,855.37
2023-09-19T06:13:28.738Z,855.38
2023-09-19T06:14:28.718Z,855.40
2023-09-19T06:15:28.694Z,855.44
2023-09-19T06:16:28.802Z,855.46
2023-09-19T06:17:28.725Z,855.48
2023-09-19T06:18:28.657Z,855.48
2023-09-19T06:19:28.656Z,855.49
2023-09-19T06:20:28.658Z,855.48
2023-09-19T06:21:28.631Z,855.48
2023-09-19T06:22:28.644Z,855.51
2023-09-19T06:23:28.607Z,855.50
2023-09-19T06:24:28.701Z,855.55
2023-09-19T06:25:28.637Z,855.55
2023-09-19T06:26:28.573Z,855.58
2023-09-19T06:27:28.565Z,855.55
2023-09-19T06:28:28.598Z,855.56
2023-09-19T06:29:28.539Z,855.56
2023-09-19T06:30:28.541Z,855.57
2023-09-19T06:31:28.638Z,855.49
2023-09-19T06:32:28.660Z,855.50
2023-09-19T06:33:28.543Z,855.52
2023-09-19T06:34:28.543Z,855.50
2023-09-19T06:35:28.478Z,855.49
2023-09-19T06:36:28.479Z,855.49
2023-09-19T06:37:28.594Z,855.47
2023-09-19T06:38:28.443Z,855.49
2023-09-19T06:39:28.421Z,855.46
2023-09-19T06:40:28.436Z,855.50
2023-09-19T06:41:28.418Z,855.51
2023-09-19T06:42:28.672Z,855.50
2023-09-19T06:43:28.419Z,855.48
2023-09-19T06:44:28.419Z,855.47
2023-09-19T06:45:28.766Z,855.42
2023-09-19T06:46:28.475Z,855.46
2023-09-19T06:47:28.360Z,855.45
2023-09-19T06:48:28.337Z,855.44
2023-09-19T06:49:28.335Z,855.40
2023-09-19T06:50:28.535Z,855.46
2023-09-19T06:51:28.320Z,855.50
2023-09-19T06:52:28.310Z,855.51
2023-09-19T06:53:28.282Z,855.50
2023-09-19T06:54:28.331Z,855.47
2023-09-19T06:55:28.376Z,855.50
2023-09-19T06:56:28.256Z,855.47
2023-09-19T06:57:28.239Z,855.50
2023-09-19T06:58:28.267Z,855.50
2023-09-19T06:59:28.215Z,855.49
2023-09-19T07:00:28.232Z,855.49
2023-09-19T07:01:28.345Z,855.50
2023-09-19T07:02:28.263Z,855.52
2023-09-19T07:03:28.287Z,855.53
2023-09-19T07:04:28.214Z,855.56
2023-09-19T07:05:28.162Z,855.56
2023-09-19T07:06:28.141Z,855.53
2023-09-19T07:07:28.202Z,855.48
2023-09-19T07:08:28.109Z,855.55
2023-09-19T07:09:28.123Z,855.53
2023-09-19T07:10:28.212Z,855.49
2023-09-19T07:11:28.117Z,855.48
2023-09-19T07:12:28.076Z,855.54
2023-09-19T07:13:28.121Z,855.48
2023-09-19T07:14:28.050Z,855.51
2023-09-19T07:15:28.090Z,855.53
2023-09-19T07:16:28.149Z,855.54
2023-09-19T07:17:28.070Z,855.62
2023-09-19T07:18:28.007Z,855.60
2023-09-19T07:19:28.069Z,855.63
2023-09-19T07:20:28.043Z,855.66
2023-09-19T07:21:27.972Z,855.65
2023-09-19T07:22:28.049Z,855.69
2023-09-19T07:23:27.972Z,855.68
2023-09-19T07:24:27.935Z,855.71
2023-09-19T07:25:28.002Z,855.66
2023-09-19T07:26:27.915Z,855.69
2023-09-19T07:27:27.908Z,855.71
2023-09-19T07:28:27.925Z,855.70
2023-09-19T07:29:27.889Z,855.66
2023-09-19T07:30:27.881Z,855.62
2023-09-19T07:31:27.989Z,855.65
2023-09-19T07:32:28.077Z,855.63
2023-09-19T07:33:27.840Z,855.66
2023-09-19T07:34:27.840Z,855.68
2023-09-19T07:35:27.837Z,855.68
2023-09-19T07:36:27.807Z,855.69
2023-09-19T07:37:27.835Z,855.68
2023-09-19T07:38:27.782Z,855.73
2023-09-19T07:39:27.803Z,855.74
2023-09-19T07:40:27.803Z,855.70
2023-09-19T07:41:27.758Z,855.69
2023-09-19T07:42:27.735Z,855.72
2023-09-19T07:43:27.767Z,855.76
2023-09-19T07:44:27.719Z,855.79
2023-09-19T07:45:27.733Z,855.81
2023-09-19T07:46:27.715Z,855.84
2023-09-19T07:47:27.685Z,855.84
2023-09-19T07:48:27.710Z,855.82
2023-09-19T07:49:27.693Z,855.89
2023-09-19T07:50:27.658Z,855.88
2023-09-19T07:51:27.658Z,855.87
2023-09-19T07:52:27.702Z,855.89
2023-09-19T07:53:27.619Z,855.92
2023-09-19T07:54:27.767Z,855.98
2023-09-19T07:55:27.664Z,855.98
2023-09-19T07:56:27.589Z,855.92
2023-09-19T07:57:27.613Z,855.94
2023-09-19T07:58:27.578Z,855.98
2023-09-19T07:59:27.574Z,856.01
2023-09-19T08:00:27.550Z,855.95
2023-09-19T08:01:27.693Z,855.96
2023-09-19T08:02:27.555Z,855.94
2023-09-19T08:03:27.590Z,855.91
2023-09-19T08:04:27.812Z,855.92
2023-09-19T08:05:27.525Z,855.96
2023-09-19T08:06:27.484Z,855.95
2023-09-19T08:07:27.474Z,855.91
2023-09-19T08:08:27.470Z,855.91
2023-09-19T08:09:27.462Z,855.90
2023-09-19T08:10:27.560Z,855.92
2023-09-19T08:11:27.424Z,855.89
2023-09-19T08:12:27.427Z,855.88
2023-09-19T08:13:27.466Z,855.91
2023-09-19T08:14:27.389Z,855.91
2023-09-19T08:15:27.456Z,855.90
2023-09-19T08:16:27.516Z,855.91
2023-09-19T08:17:27.426Z,855.87
2023-09-19T08:18:27.361Z,855.87
2023-09-19T08:19:27.390Z,855.86
2023-09-19T08:20:27.351Z,855.80
2023-09-19T08:21:27.334Z,855.82
2023-09-19T08:22:27.371Z,855.85
2023-09-19T08:23:27.317Z,855.83
2023-09-19T08:24:27.281Z,855.88
2023-09-19T08:25:27.303Z,855.85
2023-09-19T08:26:27.256Z,855.86
2023-09-19T08:27:27.247Z,855.86
2023-09-19T08:28:27.366Z,855.92
2023-09-19T08:29:27.226Z,855.94
2023-09-19T08:30:27.215Z,855.80
2023-09-19T08:31:27.402Z,855.85
2023-09-19T08:32:27.340Z,855.84
2023-09-19T08:33:27.175Z,855.82
2023-09-19T08:34:27.272Z,855.85
2023-09-19T08:35:27.160Z,855.84
2023-09-19T08:36:27.215Z,855.82
2023-09-19T08:37:27.155Z,855.86
2023-09-19T08:38:27.120Z,855.85
2023-09-19T08:39:27.118Z,855.82
2023-09-19T08:40:27.132Z,855.82
2023-09-19T08:41:27.093Z,855.81
2023-09-19T08:42:27.098Z,855.81
2023-09-19T08:43:27.093Z,855.83
2023-09-19T08:44:27.060Z,855.82
2023-09-19T08:45:27.052Z,855.86
2023-09-19T08:46:27.133Z,855.83
2023-09-19T08:47:27.172Z,855.83
2023-09-19T08:48:27.096Z,855.83
2023-09-19T08:49:27.086Z,855.83
2023-09-19T08:50:27.010Z,855.81
2023-09-19T08:51:26.986Z,855.80
2023-09-19T08:52:27.013Z,855.80
2023-09-19T08:53:26.977Z,855.86
2023-09-19T08:54:26.945Z,855.80
2023-09-19T08:55:26.996Z,855.82
2023-09-19T08:56:26.926Z,855.81
2023-09-19T08:57:26.915Z,855.81
2023-09-19T08:58:27.031Z,855.84
2023-09-19T08:59:26.915Z,855.76
2023-09-19T09:00:26.897Z,855.74
2023-09-19T09:01:26.958Z,855.73
2023-09-19T09:02:26.874Z,855.78
2023-09-19T09:03:26.862Z,855.81
2023-09-19T09:04:26.877Z,855.77
2023-09-19T09:05:26.864Z,855.80
2023-09-19T09:06:26.810Z,855.82
2023-09-19T09:07:26.837Z,855.81
2023-09-19T09:08:26.820Z,855.82
2023-09-19T09:09:26.808Z,855.82
2023-09-19T09:10:26.805Z,855.84
2023-09-19T09:11:26.763Z,855.83
2023-09-19T09:12:26.752Z,855.85
2023-09-19T09:13:26.773Z,855.80
2023-09-19T09:14:26.754Z,855.86
2023-09-19T09:15:26.725Z,855.80
2023-09-19T09:16:26.776Z,855.87
2023-09-19T09:17:26.822Z,855.81
2023-09-19T09:18:26.824Z,855.85
2023-09-19T09:19:26.716Z,855.85
2023-09-19T09:20:26.668Z,855.85
2023-09-19T09:21:26.647Z,855.85
2023-09-19T09:22:26.680Z,855.85
2023-09-19T09:23:26.636Z,855.79
2023-09-19T09:24:26.699Z,855.78
2023-09-19T09:25:26.649Z,855.82
2023-09-19T09:26:26.708Z,855.79
2023-09-19T09:27:26.577Z,855.85
2023-09-19T09:28:26.622Z,855.85
2023-09-19T09:29:26.567Z,855.83
2023-09-19T09:30:26.548Z,855.92
2023-09-19T09:31:26.746Z,855.88
2023-09-19T09:32:26.588Z,855.93
2023-09-19T09:33:26.636Z,855.93
2023-09-19T09:34:26.529Z,855.90
2023-09-19T09:35:26.494Z,855.92
2023-09-19T09:36:26.483Z,855.89
2023-09-19T09:37:26.502Z,855.92
2023-09-19T09:38:26.480Z,855.90
2023-09-19T09:39:26.845Z,855.92
2023-09-19T09:40:26.505Z,855.90
2023-09-19T09:41:26.463Z,855.93
2023-09-19T09:42:26.417Z,855.89
2023-09-19T09:43:26.461Z,855.89
2023-09-19T09:44:26.411Z,855.90
2023-09-19T09:45:26.440Z,855.92
2023-09-19T09:46:26.473Z,855.90
2023-09-19T09:47:26.444Z,855.90
2023-09-19T09:48:26.349Z,855.86
2023-09-19T09:49:26.692Z,855.89
2023-09-19T09:50:26.326Z,855.87
2023-09-19T09:51:26.321Z,855.86
2023-09-19T09:52:26.405Z,855.80
2023-09-19T09:53:26.310Z,855.85
2023-09-19T09:54:26.284Z,855.88
2023-09-19T09:55:26.290Z,855.86
2023-09-19T09:56:26.283Z,855.85
2023-09-19T09:57:26.265Z,855.80
2023-09-19T09:58:26.352Z,855.83
2023-09-19T09:59:26.229Z,855.81
2023-09-19T10:00:26.217Z,855.83
2023-09-19T10:01:26.300Z,855.85
2023-09-19T10:02:26.492Z,855.80
2023-09-19T10:03:26.314Z,855.77
2023-09-19T10:04:26.342Z,855.78
2023-09-19T10:05:26.214Z,855.75
2023-09-19T10:06:26.318Z,855.76
2023-09-19T10:07:26.225Z,855.76
2023-09-19T10:08:26.141Z,855.78
2023-09-19T10:09:26.123Z,855.77
2023-09-19T10:10:26.149Z,855.83
2023-09-19T10:11:26.102Z,855.79
2023-09-19T10:12:26.108Z,855.82
2023-09-19T10:13:26.102Z,855.78
2023-09-19T10:14:26.065Z,855.81
2023-09-19T10:15:26.080Z,855.83
2023-09-19T10:16:26.119Z,855.84
2023-09-19T10:17:26.204Z,855.84
2023-09-19T10:18:26.043Z,855.81
2023-09-19T10:19:26.587Z,855.80
2023-09-19T10:20:26.017Z,855.82
2023-09-19T10:21:26.020Z,855.79
2023-09-19T10:22:25.991Z,855.77
2023-09-19T10:23:25.967Z,855.77
2023-09-19T10:24:25.988Z,855.80
2023-09-19T10:25:26.065Z,855.73
2023-09-19T10:26:25.945Z,855.76
2023-09-19T10:27:25.932Z,855.77
2023-09-19T10:28:37.267Z,855.79
2023-09-19T10:29:26.903Z,855.79
2023-09-19T10:30:25.910Z,855.77
2023-09-19T10:31:26.000Z,855.73
2023-09-19T10:32:26.112Z,855.75
2023-09-19T10:33:25.859Z,855.76
2023-09-19T10:34:25.884Z,855.73
2023-09-19T10:35:25.850Z,855.71
2023-09-19T10:36:25.815Z,855.76
2023-09-19T10:37:25.858Z,855.75
2023-09-19T10:38:25.790Z,855.77
2023-09-19T10:39:25.777Z,855.79
2023-09-19T10:40:25.850Z,855.74
2023-09-19T10:41:25.783Z,855.74
2023-09-19T10:42:25.748Z,855.76
2023-09-19T10:43:25.804Z,855.78
2023-09-19T10:44:25.782Z,855.75
2023-09-19T10:45:25.711Z,855.76
2023-09-19T10:46:25.794Z,855.73
2023-09-19T10:47:25.928Z,855.73
2023-09-19T10:48:25.678Z,855.73
2023-09-19T10:49:25.808Z,855.71
2023-09-19T10:50:25.727Z,855.73
2023-09-19T10:51:25.692Z,855.70
2023-09-19T10:52:25.645Z,855.65
2023-09-19T10:53:25.635Z,855.65
2023-09-19T10:54:25.618Z,855.65
2023-09-19T10:55:25.689Z,855.63
2023-09-19T10:56:25.686Z,855.65
2023-09-19T10:57:25.589Z,855.64
2023-09-19T10:58:25.569Z,855.64
2023-09-19T10:59:25.658Z,855.70
2023-09-19T11:00:25.632Z,855.72
2023-09-19T11:01:25.583Z,855.69
2023-09-19T11:02:25.634Z,855.76
2023-09-19T11:03:25.637Z,855.64
2023-09-19T11:04:25.630Z,855.63
2023-09-19T11:05:25.511Z,855.62
2023-09-19T11:06:25.498Z,855.69
2023-09-19T11:07:25.474Z,855.62
2023-09-19T11:08:25.465Z,855.67
2023-09-19T11:09:25.448Z,855.61
2023-09-19T11:10:25.441Z,855.64
2023-09-19T11:11:25.445Z,855.63
2023-09-19T11:12:25.418Z,855.65
2023-09-19T11:13:25.421Z,855.65
2023-09-19T11:14:25.436Z,855.69
2023-09-19T11:15:25.384Z,855.67
2023-09-19T11:16:25.439Z,855.67
2023-09-19T11:17:25.400Z,855.65
2023-09-19T11:18:25.345Z,855.62
2023-09-19T11:19:25.543Z,855.65
2023-09-19T11:20:25.359Z,855.59
2023-09-19T11:21:25.320Z,855.59
2023-09-19T11:22:25.324Z,855.58
2023-09-19T11:23:25.302Z,855.61
2023-09-19T11:24:25.298Z,855.60
2023-09-19T11:25:25.275Z,855.60
2023-09-19T11:26:25.264Z,855.55
2023-09-19T11:27:25.252Z,855.56
2023-09-19T11:28:25.271Z,855.54
2023-09-19T11:29:25.247Z,855.53
2023-09-19T11:30:25.222Z,855.54
2023-09-19T11:31:25.290Z,855.53
2023-09-19T11:32:25.604Z,855.50
2023-09-19T11:33:25.430Z,855.52
2023-09-19T11:34:25.189Z,855.54
2023-09-19T11:35:25.168Z,855.51
2023-09-19T11:36:26.446Z,855.47
2023-09-19T11:37:25.151Z,855.47
2023-09-19T11:38:25.135Z,855.50
2023-09-19T11:39:25.133Z,855.46
2023-09-19T11:40:25.114Z,855.44
2023-09-19T11:41:25.100Z,855.48
2023-09-19T11:42:25.095Z,855.46
2023-09-19T11:43:25.080Z,855.45
2023-09-19T11:44:25.176Z,855.44
2023-09-19T11:45:25.108Z,855.44
2023-09-19T11:46:25.067Z,855.47
2023-09-19T11:47:25.064Z,855.45
2023-09-19T11:48:25.063Z,855.40
2023-09-19T11:49:25.026Z,855.42
2023-09-19T11:50:25.018Z,855.39
2023-09-19T11:51:25.070Z,855.38
2023-09-19T11:52:24.991Z,855.40
2023-09-19T11:53:24.978Z,855.38
2023-09-19T11:54:24.964Z,855.39
2023-09-19T11:55:24.967Z,855.38
2023-09-19T11:56:24.943Z,855.36
2023-09-19T11:57:24.928Z,855.33
2023-09-19T11:58:24.917Z,855.34
2023-09-19T11:59:24.929Z,855.33
2023-09-19T12:00:24.923Z,855.30
2023-09-19T12:01:24.922Z,855.27
2023-09-19T12:02:24.932Z,855.30
2023-09-19T12:03:24.994Z,855.28
2023-09-19T12:04:24.890Z,855.28
2023-09-19T12:05:24.838Z,855.31
2023-09-19T12:06:24.829Z,855.26
2023-09-19T12:07:24.836Z,855.28
2023-09-19T12:08:24.807Z,855.26
2023-09-19T12:09:24.817Z,855.24
2023-09-19T12:10:24.838Z,855.30
2023-09-19T12:11:24.779Z,855.30
2023-09-19T12:12:24.767Z,855.28
2023-09-19T12:13:24.762Z,855.25
2023-09-19T12:14:24.748Z,855.26
2023-09-19T12:15:24.742Z,855.33
2023-09-19T12:16:24.716Z,855.33
2023-09-19T12:17:24.706Z,855.34
2023-09-19T12:18:24.696Z,855.31
2023-09-19T12:19:24.771Z,855.29
2023-09-19T12:20:24.789Z,855.28
2023-09-19T12:21:24.682Z,855.30
2023-09-19T12:22:24.668Z,855.32
2023-09-19T12:23:24.647Z,855.30
2023-09-19T12:24:24.629Z,855.26
2023-09-19T12:25:24.634Z,855.27
2023-09-19T12:26:24.621Z,855.23
2023-09-19T12:27:24.598Z,855.22
2023-09-19T12:28:24.585Z,855.16